Time;durP1;ratioP1;P1;durP2;ratioP2;P2;SDS_P1;SDS_P2;PMS_P1;PMS_P2;Temp;Humidity;BMP_temperature;BMP_pressure;BME280_temperature;BME280_humidity;BME280_pressure;Samples;Min_cycle;Max_cycle;Signal;HPM_P1;HPM_P2
2022/05/14 00:01:27;;;;;;;9.70;3.53;;;;;;;9.75;51.09;101765.38;4996907;28;20801;-82
2022/05/14 00:03:53;;;;;;;6.88;3.35;;;;;;;9.83;50.80;101766.97;4975309;28;20042;-76
2022/05/14 00:06:22;;;;;;;12.65;3.67;;;;;;;9.71;51.58;101765.47;4977507;28;20514;-78
2022/05/14 00:08:48;;;;;;;11.70;3.17;;;;;;;9.78;51.71;101765.28;4975400;28;20050;-78
2022/05/14 00:14:00;;;;;;;12.98;3.05;;;;;;;9.82;51.61;101767.88;4989871;28;20134;-78
2022/05/14 00:16:26;;;;;;;10.00;3.20;;;;;;;9.59;52.63;101766.63;4987884;28;20162;-77
2022/05/14 00:18:52;;;;;;;9.70;3.63;;;;;;;9.49;52.94;101757.25;4976217;28;20050;-79
2022/05/14 00:21:19;;;;;;;9.75;2.70;;;;;;;9.89;51.68;101761.63;4975612;28;20404;-80
2022/05/14 00:23:45;;;;;;;7.72;3.30;;;;;;;10.20;50.74;101762.63;4974240;28;20066;-77
2022/05/14 00:26:12;;;;;;;12.07;3.05;;;;;;;10.21;50.82;101761.72;4979522;28;20098;-80
2022/05/14 00:28:37;;;;;;;17.35;3.28;;;;;;;9.96;51.86;101753.59;4989659;28;20043;-79
2022/05/14 00:31:03;;;;;;;11.70;2.45;;;;;;;9.92;51.97;101749.38;4973302;28;20099;-80
2022/05/14 00:33:29;;;;;;;10.77;3.42;;;;;;;10.30;51.06;101751.94;4975844;28;20154;-78
2022/05/14 00:35:55;;;;;;;10.15;2.85;;;;;;;9.87;52.11;101747.75;4975442;28;20042;-77
2022/05/14 00:38:21;;;;;;;7.60;3.30;;;;;;;9.85;52.42;101739.94;4968956;28;20539;-78
2022/05/14 00:40:55;;;;;;;10.55;2.97;;;;;;;10.39;50.87;101746.47;4973416;28;20034;-80
2022/05/14 00:43:22;;;;;;;17.95;3.83;;;;;;;10.04;51.63;101745.59;4972184;28;20126;-77
2022/05/14 00:45:54;;;;;;;9.00;2.53;;;;;;;10.38;50.78;101745.63;4982092;28;20035;-79
2022/05/14 00:48:20;;;;;;;8.80;2.53;;;;;;;10.17;51.56;101752.25;4948727;28;20511;-79
2022/05/14 00:50:52;;;;;;;15.00;3.65;;;;;;;10.28;51.49;101749.38;4990068;28;20030;-80
2022/05/14 00:53:27;;;;;;;14.73;3.25;;;;;;;10.17;51.82;101738.34;4985320;28;20085;-80
2022/05/14 00:55:55;;;;;;;14.25;3.70;;;;;;;10.31;51.67;101735.38;4973161;28;20093;-79
2022/05/14 00:58:38;;;;;;;8.05;3.33;;;;;;;10.40;51.57;101735.13;4974573;28;20057;-78
2022/05/14 01:01:04;;;;;;;11.40;3.90;;;;;;;10.24;51.78;101752.09;4989889;28;20034;-78
2022/05/14 01:03:33;;;;;;;11.65;3.72;;;;;;;10.30;51.80;101737.09;4970076;28;20123;-78
2022/05/14 01:06:02;;;;;;;9.00;3.30;;;;;;;10.33;51.67;101741.44;4969103;28;20033;-79
2022/05/14 01:08:29;;;;;;;7.55;2.85;;;;;;;10.31;52.18;101743.22;4972694;28;20106;-80
2022/05/14 01:10:57;;;;;;;14.57;4.13;;;;;;;10.60;51.36;101747.69;4972464;28;20100;-78
2022/05/14 01:13:23;;;;;;;16.10;3.35;;;;;;;10.65;51.28;101748.41;4985021;28;20756;-79
2022/05/14 01:15:55;;;;;;;8.65;3.30;;;;;;;10.32;51.96;101740.53;4973865;28;20439;-80
2022/05/14 01:18:26;;;;;;;7.80;2.92;;;;;;;10.48;51.27;101741.03;4985483;28;20039;-79
2022/05/14 01:20:57;;;;;;;18.50;3.13;;;;;;;10.39;51.60;101742.13;4978903;28;20034;-79
2022/05/14 01:26:36;;;;;;;12.05;4.10;;;;;;;10.42;51.86;101738.56;4988929;28;20026;-78
2022/05/14 01:29:22;;;;;;;22.27;4.25;;;;;;;10.24;52.37;101745.13;4984574;28;20039;-78
2022/05/14 01:31:53;;;;;;;7.28;2.47;;;;;;;10.44;51.93;101742.00;4963741;28;20062;-80
2022/05/14 01:34:27;;;;;;;13.45;2.75;;;;;;;10.33;52.32;101737.06;4992736;28;20046;-79
2022/05/14 01:36:55;;;;;;;12.80;3.38;;;;;;;10.11;52.49;101739.34;4963404;28;20034;-79
2022/05/14 01:39:21;;;;;;;21.42;4.25;;;;;;;10.35;52.12;101744.84;4974392;28;20049;-78
2022/05/14 01:41:48;;;;;;;18.50;3.45;;;;;;;10.36;52.09;101736.09;4992302;28;20038;-78
2022/05/14 01:44:14;;;;;;;8.57;2.85;;;;;;;10.32;52.06;101735.31;4974117;28;20223;-79
2022/05/14 01:46:40;;;;;;;11.23;4.07;;;;;;;10.15;52.63;101734.91;5016431;28;20016;-80
2022/05/14 01:49:09;;;;;;;8.60;3.00;;;;;;;10.26;52.22;101745.94;4972571;28;20071;-81
2022/05/14 01:51:35;;;;;;;10.70;3.78;;;;;;;10.09;53.03;101737.66;4974813;28;20030;-79
2022/05/14 01:54:04;;;;;;;10.10;3.53;;;;;;;10.03;53.20;101743.88;4972572;28;20476;-78
2022/05/14 01:56:30;;;;;;;20.55;4.10;;;;;;;9.98;53.27;101741.38;4982677;28;20482;-79
2022/05/14 01:58:56;;;;;;;14.40;4.35;;;;;;;9.62;54.67;101750.03;4972866;28;20513;-80
2022/05/14 02:01:33;;;;;;;17.85;4.50;;;;;;;9.68;54.43;101750.75;5011453;28;20033;-79
2022/05/14 02:04:08;;;;;;;15.57;4.28;;;;;;;9.79;53.83;101750.50;4988145;28;20249;-79
2022/05/14 02:06:36;;;;;;;19.67;4.53;;;;;;;9.77;54.09;101747.06;4978811;28;20030;-79
2022/05/14 02:09:05;;;;;;;17.40;4.22;;;;;;;9.37;55.25;101753.16;4972236;28;20034;-78
2022/05/14 02:11:31;;;;;;;21.27;4.13;;;;;;;9.66;54.18;101747.31;4978003;28;20132;-78
2022/05/14 02:14:05;;;;;;;17.65;5.10;;;;;;;9.31;55.17;101748.91;4974870;28;20031;-80
2022/05/14 02:16:30;;;;;;;11.27;4.47;;;;;;;9.56;54.76;101749.25;5010184;28;20030;-78
2022/05/14 02:18:56;;;;;;;16.15;4.85;;;;;;;9.41;54.97;101754.81;4971963;28;20030;-78
2022/05/14 02:21:24;;;;;;;16.95;3.78;;;;;;;9.21;55.39;101755.22;5007530;28;20026;-79
2022/05/14 02:23:53;;;;;;;14.43;4.45;;;;;;;9.17;55.72;101746.59;4972102;28;20069;-78
2022/05/14 02:26:19;;;;;;;13.57;4.07;;;;;;;9.29;55.05;101750.69;4979389;28;20532;-79
2022/05/14 02:28:45;;;;;;;15.25;4.03;;;;;;;9.03;55.55;101752.97;4972915;28;20027;-78
2022/05/14 02:31:11;;;;;;;13.30;4.85;;;;;;;9.19;55.03;101759.63;4974301;28;20038;-80
2022/05/14 02:33:37;;;;;;;9.75;3.58;;;;;;;9.30;54.50;101752.44;4975100;28;20034;-79
2022/05/14 02:36:05;;;;;;;10.32;4.60;;;;;;;9.27;54.38;101752.47;4975018;28;20063;-79
2022/05/14 02:38:32;;;;;;;14.48;4.47;;;;;;;8.27;58.26;101756.91;5006735;28;20042;-77
2022/05/14 02:40:58;;;;;;;15.75;4.80;;;;;;;8.66;56.68;101743.22;4973904;28;20506;-80
2022/05/14 02:43:25;;;;;;;13.70;3.72;;;;;;;8.98;56.04;101748.72;4976244;28;20038;-79
2022/05/14 02:45:50;;;;;;;29.50;6.15;;;;;;;8.91;56.58;101751.47;5009167;28;20034;-78
2022/05/14 02:48:16;;;;;;;16.42;5.00;;;;;;;8.79;57.34;101754.31;4972800;28;20050;-81
2022/05/14 02:50:41;;;;;;;17.90;5.57;;;;;;;8.67;57.81;101763.16;4977916;28;20129;-78
2022/05/14 02:53:08;;;;;;;15.35;5.13;;;;;;;8.91;56.92;101765.34;4978413;28;20392;-77
2022/05/14 02:55:35;;;;;;;15.73;5.13;;;;;;;8.86;57.44;101763.72;4976860;28;20040;-79
2022/05/14 02:58:01;;;;;;;20.20;4.90;;;;;;;9.02;56.81;101759.09;4956573;28;20116;-79
2022/05/14 03:00:27;;;;;;;15.95;4.95;;;;;;;9.05;56.81;101766.84;4985629;28;20065;-78
2022/05/14 03:02:53;;;;;;;19.25;5.28;;;;;;;8.92;56.89;101759.25;4970510;28;20042;-78
2022/05/14 03:05:21;;;;;;;19.25;4.72;;;;;;;9.08;56.12;101758.97;4977816;28;20338;-80
2022/05/14 03:07:47;;;;;;;23.85;5.22;;;;;;;8.69;57.72;101764.84;4975432;28;20058;-78
2022/05/14 03:10:14;;;;;;;29.75;5.10;;;;;;;9.02;56.67;101764.31;4973884;28;20014;-78
2022/05/14 03:12:40;;;;;;;15.05;4.35;;;;;;;9.14;55.74;101764.94;4972498;28;20042;-79
2022/05/14 03:15:08;;;;;;;12.18;5.15;;;;;;;8.90;56.97;101763.66;4973631;28;20037;-79
2022/05/14 03:17:34;;;;;;;13.18;4.60;;;;;;;8.96;56.09;101766.16;4974620;28;20042;-78
2022/05/14 03:20:10;;;;;;;14.40;4.55;;;;;;;8.93;56.80;101767.94;4978478;28;20083;-78
2022/05/14 03:22:41;;;;;;;19.95;5.57;;;;;;;8.80;56.87;101762.09;4956224;28;20053;-78
2022/05/14 03:25:07;;;;;;;22.42;4.47;;;;;;;8.79;56.77;101760.38;4981471;28;20057;-80
2022/05/14 03:27:33;;;;;;;17.48;5.03;;;;;;;8.85;56.83;101760.28;4993813;28;20049;-83
2022/05/14 03:29:59;;;;;;;17.15;4.72;;;;;;;8.94;56.76;101764.44;4977860;28;20034;-81
2022/05/14 03:32:26;;;;;;;17.25;5.07;;;;;;;8.93;56.83;101771.41;4973955;28;20055;-81
2022/05/14 03:34:54;;;;;;;16.27;5.28;;;;;;;8.52;57.96;101772.97;4977386;28;20050;-81
2022/05/14 03:37:23;;;;;;;18.00;5.00;;;;;;;8.56;58.16;101768.56;4980977;28;20049;-79
2022/05/14 03:39:50;;;;;;;13.57;5.53;;;;;;;8.52;58.55;101777.34;5014111;28;20042;-80
2022/05/14 03:42:16;;;;;;;23.63;5.95;;;;;;;8.68;58.14;101777.94;4976105;28;20061;-81
2022/05/14 03:44:42;;;;;;;24.13;5.90;;;;;;;8.72;57.59;101782.22;4976445;28;20041;-81
2022/05/14 03:47:07;;;;;;;27.15;5.53;;;;;;;8.79;57.76;101785.59;4985044;28;20768;-81
2022/05/14 03:49:33;;;;;;;16.80;5.35;;;;;;;8.84;57.29;101788.97;5013547;28;20038;-78
2022/05/14 03:51:58;;;;;;;19.23;6.20;;;;;;;9.08;56.56;101788.50;4976938;28;20049;-80
2022/05/14 03:54:24;;;;;;;18.27;5.78;;;;;;;9.00;56.97;101793.00;4976432;28;20058;-79
2022/05/14 03:56:50;;;;;;;26.77;6.88;;;;;;;8.82;57.06;101806.38;4976056;28;20027;-78
2022/05/14 03:59:16;;;;;;;12.85;4.72;;;;;;;9.05;56.65;101809.41;4980844;28;20053;-79
2022/05/14 04:01:41;;;;;;;18.58;4.60;;;;;;;8.77;57.23;101803.84;4975988;28;20073;-78
2022/05/14 04:04:07;;;;;;;13.82;5.13;;;;;;;8.88;57.38;101807.13;4975321;28;20119;-79
2022/05/14 04:06:34;;;;;;;22.17;5.55;;;;;;;9.03;56.77;101807.72;5010401;28;20033;-81
2022/05/14 04:09:01;;;;;;;18.80;6.13;;;;;;;9.21;56.02;101810.00;4975885;28;20089;-79
2022/05/14 04:11:27;;;;;;;20.63;5.47;;;;;;;9.13;56.66;101811.91;4981068;28;20028;-78
2022/05/14 04:13:54;;;;;;;19.58;5.30;;;;;;;8.70;57.66;101823.06;4975435;28;20100;-79
2022/05/14 04:16:21;;;;;;;21.48;5.35;;;;;;;9.06;57.54;101810.28;4972581;28;20511;-80
2022/05/14 04:18:46;;;;;;;22.58;5.40;;;;;;;9.05;57.62;101819.00;4970846;28;20054;-79
2022/05/14 04:21:12;;;;;;;18.52;5.53;;;;;;;8.91;57.65;101827.91;4977919;28;20597;-79
2022/05/14 04:23:38;;;;;;;9.85;4.80;;;;;;;9.08;57.31;101829.38;4988706;28;20042;-79
2022/05/14 04:26:04;;;;;;;16.75;4.40;;;;;;;9.54;56.09;101828.47;4995665;28;20057;-79
2022/05/14 04:28:31;;;;;;;18.98;5.28;;;;;;;9.90;54.95;101826.88;5011500;28;20042;-80
2022/05/14 04:30:57;;;;;;;20.15;4.93;;;;;;;9.91;54.90;101838.19;4993357;28;20965;-79
2022/05/14 04:33:24;;;;;;;20.35;6.38;;;;;;;9.87;54.98;101841.75;4946150;28;20042;-78
2022/05/14 04:35:50;;;;;;;18.85;5.82;;;;;;;9.54;55.56;101844.13;4991749;28;20039;-79
2022/05/14 04:38:16;;;;;;;16.27;3.85;;;;;;;9.72;55.07;101843.78;4972700;28;20042;-78
2022/05/14 04:40:44;;;;;;;9.75;4.13;;;;;;;9.95;54.00;101839.84;5009572;28;20476;-80
2022/05/14 04:43:12;;;;;;;19.73;5.03;;;;;;;10.09;54.57;101849.97;4976882;28;20368;-78
2022/05/14 04:45:39;;;;;;;17.25;4.60;;;;;;;10.05;54.06;101846.56;4977754;28;20030;-78
2022/05/14 04:48:06;;;;;;;12.32;4.93;;;;;;;10.06;53.98;101843.06;4974136;28;20041;-80
2022/05/14 04:50:32;;;;;;;18.73;3.85;;;;;;;10.31;53.90;101845.97;4991671;28;20037;-79
2022/05/14 04:52:59;;;;;;;24.55;4.38;;;;;;;10.47;53.33;101849.06;5011517;28;20129;-79
2022/05/14 04:55:26;;;;;;;13.32;4.28;;;;;;;10.37;53.88;101844.94;4979021;28;20064;-81
2022/05/14 04:57:52;;;;;;;10.85;4.38;;;;;;;10.12;53.84;101848.13;4975353;28;20400;-78
2022/05/14 05:00:18;;;;;;;13.93;3.65;;;;;;;10.21;53.69;101845.34;4967727;28;20077;-79
2022/05/14 05:05:29;;;;;;;16.35;3.63;;;;;;;12.32;49.16;101859.75;4991387;28;20728;-80
2022/05/14 05:07:56;;;;;;;12.70;3.40;;;;;;;12.88;47.12;101862.28;4974187;28;20043;-80
2022/05/14 05:10:24;;;;;;;14.68;3.42;;;;;;;13.30;45.31;101856.47;4979597;28;20053;-80
2022/05/14 05:12:50;;;;;;;19.60;4.30;;;;;;;13.28;45.09;101858.28;5008421;28;20049;-78
2022/05/14 05:15:15;;;;;;;14.50;3.92;;;;;;;13.82;43.92;101866.84;5010168;28;20026;-81
2022/05/14 05:17:41;;;;;;;12.90;3.10;;;;;;;12.90;45.99;101873.59;4976175;28;20658;-79
2022/05/14 05:20:09;;;;;;;17.13;3.20;;;;;;;12.82;46.43;101870.34;4970270;28;20042;-80
2022/05/14 05:22:34;;;;;;;18.38;3.60;;;;;;;12.43;47.46;101863.72;5013496;28;20061;-81
2022/05/14 05:25:00;;;;;;;17.58;4.32;;;;;;;12.12;47.88;101868.22;4977963;28;20114;-79
2022/05/14 05:27:26;;;;;;;19.88;4.15;;;;;;;12.13;48.28;101876.00;4974136;28;20042;-80
2022/05/14 05:29:51;;;;;;;16.70;4.15;;;;;;;11.91;48.79;101880.19;4990775;28;20049;-82
2022/05/14 05:32:17;;;;;;;18.70;4.60;;;;;;;12.08;48.59;101872.69;4973554;28;20054;-81
2022/05/14 05:34:42;;;;;;;17.05;4.18;;;;;;;12.52;47.68;101867.81;4973514;28;20049;-81
2022/05/14 05:37:08;;;;;;;24.35;4.97;;;;;;;12.73;46.55;101879.38;4973541;28;20037;-79
2022/05/14 05:39:33;;;;;;;18.80;4.55;;;;;;;12.64;46.73;101884.91;4975214;28;20120;-81
2022/05/14 05:41:59;;;;;;;17.08;4.32;;;;;;;11.88;48.58;101892.47;4968269;28;20480;-79
2022/05/14 05:44:28;;;;;;;13.20;4.28;;;;;;;12.74;47.09;101889.00;4990078;28;20113;-79
2022/05/14 05:46:53;;;;;;;13.52;3.60;;;;;;;12.86;46.32;101888.56;4987760;28;20042;-79
2022/05/14 05:49:20;;;;;;;20.23;4.10;;;;;;;13.01;46.41;101888.97;4970340;28;20034;-80
2022/05/14 05:51:46;;;;;;;15.75;4.38;;;;;;;12.57;46.59;101894.75;5003830;28;20082;-80
2022/05/14 05:56:57;;;;;;;17.55;3.80;;;;;;;12.21;47.26;101899.38;4989142;28;20066;-79
2022/05/14 05:59:24;;;;;;;11.55;3.15;;;;;;;12.74;46.86;101901.25;4990286;28;20109;-79
2022/05/14 06:01:52;;;;;;;17.80;3.47;;;;;;;13.70;45.25;101899.69;4973100;28;20034;-79
2022/05/14 06:04:17;;;;;;;15.98;4.07;;;;;;;14.88;41.77;101912.59;4994079;28;20061;-80
2022/05/14 06:06:43;;;;;;;9.35;2.72;;;;;;;16.39;39.24;101907.59;4978072;28;20030;-79
2022/05/14 06:09:13;;;;;;;16.90;3.85;;;;;;;16.82;37.89;101902.91;4973128;28;20049;-81
2022/05/14 06:11:41;;;;;;;21.83;3.42;;;;;;;17.56;36.63;101909.69;5009850;28;20056;-80
2022/05/14 06:14:06;;;;;;;14.93;3.90;;;;;;;17.84;36.01;101910.81;4967337;28;20039;-79
2022/05/14 06:16:32;;;;;;;15.75;3.15;;;;;;;17.95;35.10;101916.38;4971380;28;20045;-79
2022/05/14 06:18:58;;;;;;;10.27;3.25;;;;;;;20.43;30.48;101918.38;4972001;28;20041;-81
2022/05/14 06:21:23;;;;;;;15.50;3.30;;;;;;;21.03;29.79;101921.53;4973311;28;20546;-78
2022/05/14 06:23:49;;;;;;;18.65;3.53;;;;;;;20.49;30.42;101919.78;4971261;28;20043;-77
2022/05/14 06:26:15;;;;;;;12.82;2.47;;;;;;;21.27;29.25;101919.84;4982365;28;20031;-79
2022/05/14 06:28:41;;;;;;;11.02;3.38;;;;;;;22.61;27.49;101917.41;4995003;28;20109;-76
2022/05/14 06:31:06;;;;;;;16.40;2.55;;;;;;;23.09;25.96;101920.81;4981692;28;20045;-81
2022/05/14 06:33:32;;;;;;;12.18;2.22;;;;;;;20.42;29.19;101924.66;4964766;28;20476;-79
2022/05/14 06:35:58;;;;;;;21.00;3.05;;;;;;;22.55;27.29;101922.22;4980989;28;20527;-79
2022/05/14 06:38:24;;;;;;;15.55;2.10;;;;;;;20.38;29.19;101928.44;4980774;28;20072;-80
2022/05/14 06:40:50;;;;;;;9.38;1.98;;;;;;;22.17;26.94;101919.72;4963337;28;20065;-77
2022/05/14 06:43:16;;;;;;;12.00;2.72;;;;;;;23.02;26.10;101926.75;4966674;28;20139;-82
2022/05/14 06:45:43;;;;;;;10.45;2.40;;;;;;;22.98;25.47;101924.31;5000943;28;20169;-81
2022/05/14 06:48:09;;;;;;;15.45;2.90;;;;;;;21.60;27.21;101929.13;4962986;28;20050;-77
2022/05/14 06:50:47;;;;;;;9.65;2.05;;;;;;;22.65;25.92;101929.50;4965393;28;20499;-79
2022/05/14 06:53:14;;;;;;;19.15;2.80;;;;;;;22.62;26.59;101933.25;4994390;28;20092;-82
2022/05/14 06:55:43;;;;;;;12.70;2.97;;;;;;;22.65;25.48;101932.19;4964302;28;20034;-80
2022/05/14 06:58:12;;;;;;;13.57;2.70;;;;;;;19.65;29.65;101942.75;4944191;28;20042;-80
2022/05/14 07:00:38;;;;;;;14.13;2.50;;;;;;;19.91;30.02;101945.59;4977557;28;20277;-81
2022/05/14 07:08:50;;;;;;;13.95;2.13;;;;;;;19.35;29.74;101947.28;4937369;28;20744;-79
2022/05/14 07:11:16;;;;;;;15.35;2.25;;;;;;;19.16;29.45;101950.16;4970695;28;20105;-79
2022/05/14 07:13:41;;;;;;;9.98;1.70;;;;;;;19.64;29.88;101946.38;4962293;28;20042;-77
2022/05/14 07:16:07;;;;;;;8.73;1.50;;;;;;;19.24;30.64;101948.75;4980619;28;20045;-77
2022/05/14 07:18:32;;;;;;;12.25;1.85;;;;;;;20.96;27.46;101957.47;4961927;28;20041;-79
2022/05/14 07:20:59;;;;;;;10.98;1.60;;;;;;;21.63;26.62;101955.50;4960949;28;20054;-80
2022/05/14 07:23:24;;;;;;;15.95;2.15;;;;;;;21.85;26.07;101953.97;4967312;28;20149;-78
2022/05/14 07:25:50;;;;;;;11.38;1.20;;;;;;;22.64;24.28;101949.13;4963467;28;20107;-77
2022/05/14 07:28:16;;;;;;;8.38;1.27;;;;;;;23.03;24.70;101957.78;4967905;28;20133;-76
2022/05/14 07:30:42;;;;;;;8.32;1.88;;;;;;;22.84;24.10;101963.66;4962249;28;20040;-77
2022/05/14 07:33:07;;;;;;;7.13;1.67;;;;;;;24.72;22.58;101955.03;4974750;28;20071;-78
2022/05/14 07:35:34;;;;;;;10.98;1.33;;;;;;;24.64;21.81;101961.88;4984615;28;20037;-79
2022/05/14 07:38:03;;;;;;;8.23;1.33;;;;;;;24.44;22.34;101954.66;4983998;28;20784;-79
2022/05/14 07:40:33;;;;;;;9.02;1.35;;;;;;;25.24;21.37;101950.59;5003011;28;20030;-81
2022/05/14 07:43:08;;;;;;;8.40;2.15;;;;;;;25.68;20.97;101946.75;4962035;28;20065;-81
2022/05/14 07:45:45;;;;;;;9.27;1.90;;;;;;;25.77;20.28;101953.13;4965880;28;20038;-79
2022/05/14 07:48:21;;;;;;;11.27;1.27;;;;;;;25.33;21.20;101957.88;4967111;28;20030;-79
2022/05/14 07:50:47;;;;;;;6.25;1.50;;;;;;;24.88;22.14;101958.09;4981888;28;20281;-79
2022/05/14 07:53:15;;;;;;;11.98;2.33;;;;;;;25.31;21.35;101962.50;4973402;28;20574;-79
2022/05/14 07:55:43;;;;;;;6.10;1.67;;;;;;;24.93;21.48;101963.06;4963892;28;20030;-81
2022/05/14 07:58:09;;;;;;;6.38;1.60;;;;;;;26.40;19.66;101954.69;4970647;28;20055;-78
2022/05/14 08:00:36;;;;;;;8.05;1.65;;;;;;;25.56;20.17;101958.56;4979346;28;20081;-78
2022/05/14 08:03:02;;;;;;;8.40;1.42;;;;;;;23.80;21.57;101969.53;4981276;28;20293;-78
2022/05/14 08:05:28;;;;;;;5.85;1.15;;;;;;;23.88;21.89;101960.97;4974096;28;20089;-78
2022/05/14 08:07:54;;;;;;;6.57;0.80;;;;;;;24.74;21.05;101958.44;4968971;28;20054;-76
2022/05/14 08:10:20;;;;;;;8.90;1.20;;;;;;;24.57;21.55;101959.81;4969545;28;20191;-78
2022/05/14 08:12:51;;;;;;;8.98;0.90;;;;;;;22.92;22.61;101956.78;4987664;28;20101;-77
2022/05/14 08:15:18;;;;;;;12.20;0.88;;;;;;;22.95;23.07;101972.53;4969963;28;20030;-78
2022/05/14 08:17:44;;;;;;;7.88;1.33;;;;;;;23.05;21.78;101966.50;5001883;28;20556;-77
2022/05/14 08:20:12;;;;;;;3.45;0.60;;;;;;;22.90;22.90;101964.06;4972252;28;20038;-77
2022/05/14 08:25:23;;;;;;;5.75;1.05;;;;;;;25.02;20.07;101978.38;4987532;28;20820;-77
2022/05/14 08:27:48;;;;;;;6.75;1.05;;;;;;;24.16;20.83;101975.56;4976245;28;20054;-78
2022/05/14 08:30:14;;;;;;;6.85;1.05;;;;;;;23.04;22.95;101972.81;4967844;28;20030;-76
2022/05/14 08:32:40;;;;;;;5.50;0.65;;;;;;;24.28;21.28;101967.53;4971417;28;20050;-77
2022/05/14 08:35:08;;;;;;;5.53;0.75;;;;;;;25.30;21.01;101962.63;4969108;28;20054;-80
2022/05/14 08:37:34;;;;;;;9.35;1.02;;;;;;;23.05;22.75;101978.00;4995564;28;20528;-76
2022/05/14 08:40:09;;;;;;;5.20;0.70;;;;;;;21.42;24.14;101978.22;4978838;28;20048;-77
2022/05/14 08:42:37;;;;;;;4.10;0.60;;;;;;;21.31;24.25;101978.97;4985170;28;20479;-80
2022/05/14 08:45:05;;;;;;;5.20;0.90;;;;;;;21.05;24.72;101994.03;4968499;28;20026;-78
2022/05/14 08:47:34;;;;;;;4.90;1.00;;;;;;;20.86;25.17;101987.28;4970261;28;20477;-78
2022/05/14 08:50:03;;;;;;;5.82;0.70;;;;;;;21.29;24.59;101984.41;4967563;28;20034;-79
2022/05/14 08:52:29;;;;;;;4.60;0.75;;;;;;;22.79;22.53;101996.00;5001187;28;20474;-79
2022/05/14 08:55:02;;;;;;;5.20;1.38;;;;;;;22.47;22.99;102001.88;5004059;28;20065;-78
2022/05/14 08:58:10;;;;;;;5.28;1.10;;;;;;;21.19;23.82;102009.91;4968782;28;20042;-77
2022/05/14 09:00:36;;;;;;;2.25;0.63;;;;;;;21.40;23.78;102004.94;4973659;28;20037;-79
2022/05/14 09:03:03;;;;;;;7.30;1.08;;;;;;;20.78;24.38;102016.16;5000996;28;20334;-78
2022/05/14 09:05:32;;;;;;;6.28;1.02;;;;;;;20.40;25.15;102014.16;4988859;28;20088;-77
2022/05/14 09:08:01;;;;;;;4.45;0.70;;;;;;;20.01;25.34;102010.38;4972635;28;20042;-78
2022/05/14 09:10:32;;;;;;;4.88;0.80;;;;;;;21.42;24.09;102007.47;4967662;28;20590;-78
2022/05/14 09:13:15;;;;;;;5.78;0.85;;;;;;;22.41;23.36;102009.47;4969111;28;20100;-79
2022/05/14 09:15:48;;;;;;;5.78;0.50;;;;;;;23.26;21.92;102006.69;4984293;28;20070;-79
2022/05/14 09:18:21;;;;;;;3.28;0.80;;;;;;;20.57;24.97;102020.19;4982983;28;20109;-76
2022/05/14 09:20:53;;;;;;;7.05;1.65;;;;;;;22.25;23.54;102021.22;4972322;28;20034;-78
2022/05/14 09:23:37;;;;;;;6.60;1.27;;;;;;;20.99;25.21;102021.03;5007483;28;20368;-80
2022/05/14 09:26:40;;;;;;;3.70;0.70;;;;;;;21.28;25.19;102024.38;4991731;28;20085;-79
2022/05/14 09:29:24;;;;;;;6.78;1.38;;;;;;;21.49;24.46;102030.06;4955081;28;20054;-81
2022/05/14 09:32:06;;;;;;;9.45;0.85;;;;;;;21.27;25.56;102031.50;4988271;28;20042;-80
2022/05/14 09:34:35;;;;;;;6.50;0.82;;;;;;;19.56;27.36;102032.63;4980547;28;20046;-78
2022/05/14 09:37:09;;;;;;;3.40;0.80;;;;;;;19.25;27.22;102037.06;4969031;28;20693;-77
2022/05/14 09:39:35;;;;;;;6.78;1.20;;;;;;;19.91;26.82;102046.41;4967947;28;20037;-77
2022/05/14 09:42:02;;;;;;;5.40;0.95;;;;;;;18.79;27.64;102043.19;4947437;28;20620;-76
2022/05/14 09:44:43;;;;;;;7.63;1.45;;;;;;;18.93;27.77;102041.59;4985429;28;20048;-78
2022/05/14 09:47:12;;;;;;;9.38;1.35;;;;;;;19.14;27.89;102045.63;4967832;28;20460;-78
2022/05/14 09:49:40;;;;;;;9.25;1.27;;;;;;;18.37;28.70;102054.38;4990476;28;20109;-76
2022/05/14 09:52:08;;;;;;;9.00;1.48;;;;;;;18.33;29.24;102052.84;4968721;28;20076;-79
2022/05/14 09:54:53;;;;;;;9.27;1.63;;;;;;;18.51;28.67;102058.91;4966264;28;20030;-78
2022/05/14 09:57:41;;;;;;;7.20;1.15;;;;;;;18.42;28.73;102052.34;4999124;28;20046;-78
2022/05/14 10:00:06;;;;;;;12.13;1.95;;;;;;;18.93;28.44;102057.50;4968605;28;20034;-76
2022/05/14 10:02:47;;;;;;;;;;;;;;;18.16;30.04;102062.53;4973198;28;20101;-78
2022/05/14 10:05:32;;;;;;;12.88;1.75;;;;;;;19.22;28.84;102050.50;4972903;28;19992;-82
2022/05/14 10:08:04;;;;;;;6.32;1.13;;;;;;;18.48;29.51;102059.94;4967230;28;20058;-78
2022/05/14 10:10:48;;;;;;;;;;;;;;;19.45;29.02;102059.75;4985468;28;20038;-80
2022/05/14 10:13:49;;;;;;;8.98;1.70;;;;;;;18.92;28.47;102064.59;4965921;28;20528;-77
2022/05/14 10:16:28;;;;;;;8.98;1.80;;;;;;;17.89;29.96;102061.31;4979103;28;20049;-78
2022/05/14 10:19:00;;;;;;;7.50;1.48;;;;;;;19.48;28.32;102067.53;4995762;28;20042;-76
2022/05/14 10:22:10;;;;;;;11.85;1.65;;;;;;;19.83;28.42;102081.34;4971405;28;20432;-77
2022/05/14 10:28:10;;;;;;;12.35;2.25;;;;;;;20.46;26.94;102082.81;5004598;28;20298;-76
2022/05/14 10:30:56;;;;;;;12.43;2.10;;;;;;;20.78;26.14;102082.56;5002312;28;20038;-80
2022/05/14 10:33:27;;;;;;;7.00;1.80;;;;;;;20.64;26.68;102087.88;4987180;28;20054;-79
2022/05/14 10:36:11;;;;;;;9.55;1.65;;;;;;;21.44;26.00;102082.69;4964154;28;20048;-77
2022/05/14 10:38:47;;;;;;;17.10;2.20;;;;;;;19.21;28.00;102088.53;4964841;28;20329;-78
2022/05/14 10:41:40;;;;;;;11.13;2.50;;;;;;;19.25;28.18;102085.63;4970227;28;20037;-78
2022/05/14 10:44:10;;;;;;;9.48;2.67;;;;;;;18.65;29.04;102088.13;4981250;28;20050;-78
2022/05/14 10:46:40;;;;;;;8.52;2.60;;;;;;;17.78;31.17;102090.97;4985287;28;20031;-80
2022/05/14 10:49:18;;;;;;;9.90;1.98;;;;;;;19.47;28.71;102094.97;4976173;28;20043;-78
2022/05/14 10:51:48;;;;;;;11.60;2.10;;;;;;;18.85;29.09;102093.19;4983451;28;20748;-79
2022/05/14 10:54:17;;;;;;;15.13;2.93;;;;;;;18.30;30.26;102101.50;4964819;28;20077;-77
2022/05/14 10:57:02;;;;;;;11.20;2.22;;;;;;;18.75;30.33;102102.56;4998809;28;20070;-79
2022/05/14 11:00:02;;;;;;;17.17;3.08;;;;;;;18.23;30.87;102106.25;4983157;28;20046;-78
2022/05/14 11:02:32;;;;;;;9.15;1.60;;;;;;;16.82;33.14;102116.75;4984517;28;20492;-78
2022/05/14 11:04:58;;;;;;;12.00;2.40;;;;;;;16.53;33.94;102117.19;4986165;28;20125;-79
2022/05/14 11:07:37;;;;;;;12.35;2.22;;;;;;;16.38;34.42;102113.50;5001799;28;20049;-77
2022/05/14 11:10:11;;;;;;;12.43;2.05;;;;;;;16.12;34.81;102118.13;4971889;28;20049;-79
2022/05/14 11:12:38;;;;;;;15.25;2.22;;;;;;;16.72;33.68;102117.22;4938888;28;20046;-80
2022/05/14 11:15:16;;;;;;;17.38;2.33;;;;;;;17.26;33.41;102122.63;4972946;28;20471;-80
2022/05/14 11:17:42;;;;;;;16.10;2.65;;;;;;;16.74;33.41;102125.94;4943367;28;20037;-79
2022/05/14 11:20:13;;;;;;;13.95;2.47;;;;;;;16.63;34.26;102119.34;4985457;28;20026;-78
2022/05/14 11:22:44;;;;;;;11.32;1.80;;;;;;;15.99;35.15;102123.06;4965701;28;20145;-79
2022/05/14 11:25:13;;;;;;;9.98;2.47;;;;;;;16.17;35.15;102126.69;4983752;28;20038;-79
2022/05/14 11:27:40;;;;;;;16.83;2.25;;;;;;;16.63;34.19;102121.16;4965445;28;20104;-78
2022/05/14 11:30:12;;;;;;;17.60;3.08;;;;;;;17.28;32.88;102124.25;4978857;28;20481;-78
2022/05/14 11:32:44;;;;;;;12.68;2.25;;;;;;;18.21;32.18;102123.16;4964573;28;20130;-79
2022/05/14 11:35:10;;;;;;;14.85;3.05;;;;;;;18.25;31.24;102124.69;4965413;28;20030;-77
2022/05/14 11:37:39;;;;;;;15.93;2.13;;;;;;;18.99;31.22;102128.66;4999126;28;20072;-78
2022/05/14 11:40:19;;;;;;;8.25;2.22;;;;;;;19.94;29.39;102122.31;4969247;28;20807;-78
2022/05/14 11:42:47;;;;;;;10.90;2.28;;;;;;;19.63;29.00;102121.47;4974340;28;20046;-77
2022/05/14 11:45:21;;;;;;;11.00;2.05;;;;;;;18.53;30.03;102128.53;4988278;28;20392;-77
2022/05/14 11:47:55;;;;;;;12.63;2.10;;;;;;;18.65;30.34;102139.31;4970918;28;20042;-80
2022/05/14 11:50:32;;;;;;;14.93;2.25;;;;;;;17.91;29.81;102117.63;4995606;28;20030;-79
2022/05/14 11:53:24;;;;;;;14.45;2.20;;;;;;;17.93;30.86;102127.19;4987859;28;20448;-75
2022/05/14 11:55:59;;;;;;;17.05;2.22;;;;;;;17.91;30.25;102137.00;4985121;28;20432;-79